Time;durP1;ratioP1;P1;durP2;ratioP2;P2;SDS_P1;SDS_P2;PMS_P1;PMS_P2;Temp;Humidity;BMP_temperature;BMP_pressure;BME280_temperature;BME280_humidity;BME280_pressure;Samples;Min_cycle;Max_cycle;Signal;HPM_P1;HPM_P2
2021/12/11 00:45:38;;;;;;;56.50;31.40;;;;;;;-2.02;100.00;100575.00;2645456;36;21344;-74
2021/12/11 01:13:32;;;;;;;54.20;31.23;;;;;;;-2.08;100.00;100619.25;2628768;36;20629;-73
2021/12/11 01:21:44;;;;;;;51.08;31.45;;;;;;;-2.15;100.00;100651.13;2629371;36;20471;-73
2021/12/11 01:28:15;;;;;;;;;;;;;;;;;;;;;
2021/12/11 01:31:09;;;;;;;51.03;31.23;;;;;;;-2.15;100.00;100666.94;2628719;36;21370;-73
2021/12/11 01:37:11;;;;;;;56.63;33.15;;;;;;;-2.19;100.00;100685.59;2646820;36;20574;-73
2021/12/11 01:43:28;;;;;;;53.47;30.60;;;;;;;-2.14;100.00;100700.28;2646914;36;20038;-73
2021/12/11 01:46:24;;;;;;;56.08;30.23;;;;;;;-2.17;100.00;100703.03;2628538;36;20034;-73
2021/12/11 01:49:08;;;;;;;51.70;29.70;;;;;;;-2.15;100.00;100703.88;2628797;36;20670;-73
2021/12/11 01:52:33;;;;;;;51.17;28.58;;;;;;;-2.06;100.00;100712.31;2627139;36;20045;-72
2021/12/11 01:57:59;;;;;;;47.90;28.42;;;;;;;-2.10;100.00;100730.06;2612348;54;20054;-73
2021/12/11 02:00:46;;;;;;;38.70;25.73;;;;;;;-2.01;100.00;100737.59;2629934;31;20421;-73
2021/12/11 02:03:34;;;;;;;46.20;27.90;;;;;;;-2.15;100.00;100740.78;2611733;36;20034;-73
2021/12/11 02:06:41;;;;;;;47.67;27.90;;;;;;;-2.12;100.00;100751.22;2629016;36;20053;-73
2021/12/11 02:09:36;;;;;;;48.67;28.33;;;;;;;-2.15;100.00;100748.69;2647227;36;20042;-74
2021/12/11 02:15:53;;;;;;;45.47;25.25;;;;;;;-1.99;100.00;100756.00;2629206;36;20173;-74
2021/12/11 02:18:46;;;;;;;48.78;28.38;;;;;;;-2.10;100.00;100759.06;2646560;36;20574;-74
2021/12/11 02:24:31;;;;;;;44.72;27.73;;;;;;;-1.98;100.00;100765.66;2607980;36;20037;-73
2021/12/11 02:27:16;;;;;;;;;;;;;;;;;;;;;
2021/12/11 02:30:33;;;;;;;;;;;;;;;;;;;;;
2021/12/11 02:33:31;;;;;;;41.30;25.08;;;;;;;-2.00;100.00;100770.13;2628939;36;20034;-74
2021/12/11 02:36:22;;;;;;;44.40;24.00;;;;;;;-1.89;100.00;100775.84;2627754;36;20070;-73
2021/12/11 02:39:31;;;;;;;45.38;25.27;;;;;;;-2.01;100.00;100776.31;2629626;36;20030;-74
2021/12/11 02:42:20;;;;;;;44.08;26.20;;;;;;;-2.06;100.00;100781.78;2611493;36;20053;-74
2021/12/11 02:44:56;;;;;;;40.33;23.27;;;;;;;-2.01;100.00;100782.44;2630069;36;20054;-74
2021/12/11 02:50:50;;;;;;;40.65;23.50;;;;;;;-2.05;100.00;100793.16;2647155;36;20110;-74
2021/12/11 02:53:40;;;;;;;37.38;22.63;;;;;;;-2.07;100.00;100795.00;2611264;36;20035;-73
2021/12/11 02:56:25;;;;;;;;;;;;;;;-2.20;100.00;100799.88;2629447;36;20081;-73
2021/12/11 02:59:03;;;;;;;45.00;23.48;;;;;;;-2.13;100.00;100798.72;2628616;36;20517;-73
2021/12/11 03:01:48;;;;;;;41.75;23.83;;;;;;;-2.07;100.00;100801.13;2610981;36;20042;-73
2021/12/11 03:07:07;;;;;;;38.75;21.92;;;;;;;-1.91;100.00;100806.72;2610201;36;20048;-73
2021/12/11 03:09:55;;;;;;;36.63;21.80;;;;;;;-1.78;100.00;100822.94;2611034;36;20088;-73
2021/12/11 03:12:34;;;;;;;38.70;21.48;;;;;;;-1.89;100.00;100825.97;2629810;31;20069;-73
2021/12/11 03:15:24;;;;;;;35.38;21.92;;;;;;;-1.96;100.00;100813.91;2610293;36;20038;-73
2021/12/11 03:18:01;;;;;;;36.65;21.25;;;;;;;-1.90;100.00;100816.31;2610676;36;20034;-74
2021/12/11 03:20:35;;;;;;;39.80;22.27;;;;;;;-2.03;100.00;100822.97;2630030;36;20038;-74
2021/12/11 03:23:25;;;;;;;36.80;21.25;;;;;;;-2.11;100.00;100825.91;2611942;36;20042;-73
2021/12/11 03:25:58;;;;;;;35.92;21.35;;;;;;;-2.10;100.00;100826.78;2612038;36;20073;-73
2021/12/11 03:28:42;;;;;;;40.35;21.73;;;;;;;-2.13;100.00;100828.59;2610632;36;20056;-73
2021/12/11 03:31:23;;;;;;;39.63;22.58;;;;;;;-2.05;100.00;100835.38;2627724;36;20034;-73
2021/12/11 03:33:56;;;;;;;39.22;21.10;;;;;;;-2.04;100.00;100837.09;2611501;31;20581;-73
2021/12/11 03:36:32;;;;;;;38.88;22.02;;;;;;;-2.14;100.00;100832.13;2223663;36;21461183;-73
2021/12/11 03:39:20;;;;;;;41.33;21.10;;;;;;;-2.16;100.00;100828.69;2611286;36;20308;-73
2021/12/11 03:42:06;;;;;;;42.10;22.83;;;;;;;-2.15;100.00;100833.06;2628393;36;20153;-74
2021/12/11 03:44:45;;;;;;;35.60;20.65;;;;;;;-2.08;100.00;100832.84;2610781;36;20030;-74
2021/12/11 03:47:29;;;;;;;36.30;21.27;;;;;;;-2.09;100.00;100841.66;2610424;36;20034;-74
2021/12/11 03:50:04;;;;;;;40.92;21.95;;;;;;;-2.00;100.00;100834.28;2628944;36;20038;-74
2021/12/11 03:52:34;;;;;;;44.95;23.17;;;;;;;-1.96;100.00;100845.56;2629240;36;20721;-74
2021/12/11 03:55:07;;;;;;;39.45;21.52;;;;;;;-1.96;100.00;100841.16;2611228;31;20045;-74
2021/12/11 03:57:40;;;;;;;40.67;21.70;;;;;;;-1.87;100.00;100853.16;2627917;31;20046;-74
2021/12/11 04:00:19;;;;;;;40.08;22.27;;;;;;;-1.79;100.00;100851.09;2612101;31;20030;-74
2021/12/11 04:03:02;;;;;;;38.47;22.23;;;;;;;-1.82;100.00;100855.63;2628993;36;20577;-74
2021/12/11 04:05:50;;;;;;;41.60;23.05;;;;;;;-1.90;100.00;100855.88;2611055;36;20042;-74
2021/12/11 04:12:10;;;;;;;38.70;20.67;;;;;;;-1.91;100.00;100864.75;2612561;36;20065;-74
2021/12/11 04:15:13;;;;;;;41.45;22.08;;;;;;;-1.84;100.00;100870.63;2644679;36;20030;-74
2021/12/11 04:18:15;;;;;;;42.60;23.20;;;;;;;-1.74;100.00;100872.00;2629824;36;20568;-74
2021/12/11 04:23:38;;;;;;;47.42;23.58;;;;;;;-1.72;100.00;100890.44;2611689;36;20058;-74
2021/12/11 04:29:15;;;;;;;41.47;22.80;;;;;;;-1.61;100.00;100891.75;2628443;36;20035;-74
2021/12/11 04:31:48;;;;;;;42.13;22.83;;;;;;;-1.69;100.00;100895.59;2610982;36;20034;-74
2021/12/11 04:34:22;;;;;;;45.25;24.55;;;;;;;-1.59;100.00;100892.56;2609759;31;20049;-74
2021/12/11 04:37:28;;;;;;;;;;;;;;;;;;;;;
2021/12/11 04:40:14;;;;;;;45.72;23.20;;;;;;;-1.43;100.00;100908.69;2629030;36;20030;-74
2021/12/11 04:42:55;;;;;;;44.33;24.85;;;;;;;-1.38;100.00;100905.88;2629262;36;20042;-75
2021/12/11 04:45:36;;;;;;;43.40;24.50;;;;;;;-1.28;100.00;100909.00;2629660;36;20035;-75
2021/12/11 04:50:45;;;;;;;43.47;24.17;;;;;;;-1.14;100.00;100903.19;2608857;36;20030;-74
2021/12/11 04:57:04;;;;;;;51.15;26.08;;;;;;;-1.01;100.00;100920.28;2617711;36;20042;-74
2021/12/11 05:00:05;;;;;;;;;;;;;;;;;;;;;
2021/12/11 05:03:23;;;;;;;46.70;24.95;;;;;;;-0.85;100.00;100928.47;2629679;36;21344;-75
2021/12/11 05:06:16;;;;;;;52.20;26.40;;;;;;;-0.76;100.00;100930.72;2611998;36;20522;-74
2021/12/11 05:11:46;;;;;;;48.10;25.58;;;;;;;-0.72;100.00;100945.56;2625831;36;20394;-75
2021/12/11 05:14:22;;;;;;;57.55;26.88;;;;;;;-0.65;100.00;100950.59;2627534;31;21025;-73
2021/12/11 05:16:52;;;;;;;53.33;25.80;;;;;;;-0.66;100.00;100943.56;2609756;36;20172;-74
2021/12/11 05:19:21;;;;;;;49.33;27.08;;;;;;;-0.60;100.00;100946.00;2612066;36;20077;-74
2021/12/11 05:21:51;;;;;;;53.47;27.75;;;;;;;-0.55;100.00;100949.28;2609749;36;20042;-74
2021/12/11 05:24:20;;;;;;;55.55;28.05;;;;;;;-0.48;100.00;100948.13;2610882;36;20031;-75
2021/12/11 05:26:53;;;;;;;;;;;;;;;-0.45;100.00;100945.34;2609925;36;20141;-74
2021/12/11 05:29:22;;;;;;;53.38;28.58;;;;;;;-0.36;100.00;100952.03;2611354;36;19954;-74
2021/12/11 05:31:52;;;;;;;68.93;31.00;;;;;;;-0.32;100.00;100948.34;2611448;36;20031;-74
2021/12/11 05:34:21;;;;;;;61.42;28.85;;;;;;;-0.35;100.00;100959.06;2609688;36;20571;-74
2021/12/11 05:36:55;;;;;;;54.28;28.05;;;;;;;-0.23;100.00;100962.97;2610878;36;20169;-74
2021/12/11 05:39:27;;;;;;;58.58;29.17;;;;;;;-0.17;100.00;100961.84;2611451;36;20065;-74
2021/12/11 05:41:58;;;;;;;62.13;31.52;;;;;;;-0.05;100.00;100962.19;2609738;36;20069;-74
2021/12/11 05:44:27;;;;;;;62.58;30.65;;;;;;;-0.04;100.00;100961.25;2610402;36;20575;-74
2021/12/11 05:46:56;;;;;;;69.97;32.63;;;;;;;0.00;100.00;100956.72;2609663;36;20145;-74
2021/12/11 05:49:25;;;;;;;;;;;;;;;-0.03;100.00;100963.00;2610902;36;20173;-74
2021/12/11 05:51:54;;;;;;;60.75;28.80;;;;;;;-0.04;100.00;100966.56;2610611;36;19950;-74
2021/12/11 05:54:24;;;;;;;68.25;30.67;;;;;;;-0.14;100.00;100978.44;2610826;36;20069;-73
2021/12/11 05:56:57;;;;;;;54.45;29.08;;;;;;;-0.02;100.00;100980.56;2612024;36;20498;-73
2021/12/11 05:59:28;;;;;;;67.57;31.80;;;;;;;-0.07;100.00;100982.56;2612091;36;20042;-73
2021/12/11 06:02:01;;;;;;;63.33;30.77;;;;;;;-0.16;100.00;100995.31;2610923;36;20061;-73
2021/12/11 06:04:34;;;;;;;55.25;29.25;;;;;;;-0.14;100.00;100996.97;2612024;36;20084;-74
2021/12/11 06:07:05;;;;;;;54.17;28.80;;;;;;;-0.16;100.00;101012.06;2611797;36;20497;-73
2021/12/11 06:09:33;;;;;;;53.00;28.55;;;;;;;-0.13;100.00;101004.00;2612142;36;20579;-73
2021/12/11 06:12:04;;;;;;;60.05;28.58;;;;;;;-0.11;100.00;101017.16;2611561;36;20062;-74
2021/12/11 06:14:35;;;;;;;55.92;28.05;;;;;;;-0.05;100.00;101017.75;2612104;36;20630;-73
2021/12/11 06:17:05;;;;;;;60.03;28.83;;;;;;;0.04;100.00;101024.44;2612797;36;20060;-73
2021/12/11 06:19:35;;;;;;;55.17;27.70;;;;;;;0.03;100.00;101029.78;2612454;36;20096;-73
2021/12/11 06:22:10;;;;;;;58.33;28.33;;;;;;;0.02;100.00;101034.22;2612103;36;20042;-73
2021/12/11 06:24:38;;;;;;;55.92;28.17;;;;;;;0.18;100.00;101042.41;2611436;36;20819;-73
2021/12/11 06:27:07;;;;;;;58.30;26.90;;;;;;;0.14;100.00;101046.09;2611862;36;20066;-73
2021/12/11 06:29:38;;;;;;;54.53;27.92;;;;;;;0.07;100.00;101053.41;2611598;36;20609;-73
2021/12/11 06:32:07;;;;;;;55.05;27.45;;;;;;;0.16;100.00;101058.34;2610829;36;20575;-73
2021/12/11 06:34:36;;;;;;;53.65;27.00;;;;;;;0.15;100.00;101061.06;2611079;36;20196;-73
2021/12/11 06:37:06;;;;;;;55.03;28.35;;;;;;;0.09;100.00;101064.81;2611847;36;20034;-72
2021/12/11 06:39:34;;;;;;;62.60;27.83;;;;;;;0.15;100.00;101063.69;2610919;36;20149;-73
2021/12/11 06:42:09;;;;;;;56.30;27.80;;;;;;;0.13;100.00;101066.41;2611913;36;20030;-73
2021/12/11 06:44:40;;;;;;;61.70;29.80;;;;;;;0.10;100.00;101073.59;2608560;36;20038;-73
2021/12/11 06:47:13;;;;;;;63.70;29.48;;;;;;;0.18;100.00;101084.75;2608508;36;20173;-72
2021/12/11 06:49:43;;;;;;;63.63;29.38;;;;;;;0.23;100.00;101081.91;2609401;36;20037;-72
2021/12/11 06:52:14;;;;;;;71.95;31.08;;;;;;;0.21;100.00;101086.38;2608957;31;20149;-73
2021/12/11 06:54:43;;;;;;;59.92;27.52;;;;;;;0.22;100.00;101094.28;2611016;36;20647;-73
2021/12/11 06:57:11;;;;;;;70.00;29.83;;;;;;;0.14;100.00;101093.72;2610754;36;20042;-71
2021/12/11 06:59:42;;;;;;;61.67;29.10;;;;;;;0.07;100.00;101097.56;2611522;36;20057;-72
2021/12/11 07:02:11;;;;;;;60.05;29.17;;;;;;;0.10;100.00;101106.22;2609687;36;20162;-72
2021/12/11 07:04:40;;;;;;;65.72;30.42;;;;;;;0.19;100.00;101110.28;2610964;31;20149;-73
2021/12/11 07:07:08;;;;;;;60.13;29.15;;;;;;;0.24;100.00;101121.53;2612597;31;20582;-72
2021/12/11 07:10:01;;;;;;;52.85;28.33;;;;;;;0.22;100.00;101131.34;2608871;36;20129;-72
2021/12/11 07:12:34;;;;;;;56.20;26.77;;;;;;;0.27;100.00;101142.59;2626400;36;20042;-72
2021/12/11 07:15:11;;;;;;;52.65;26.67;;;;;;;0.23;100.00;101142.78;2608985;36;20567;-71
2021/12/11 07:17:40;;;;;;;55.67;25.33;;;;;;;0.28;100.00;101154.91;2610108;36;20038;-71
2021/12/11 07:20:11;;;;;;;48.30;25.33;;;;;;;0.32;100.00;101159.16;2609520;31;20550;-71
2021/12/11 07:22:41;;;;;;;46.72;24.55;;;;;;;0.36;100.00;101159.03;2608521;36;20353;-72
2021/12/11 07:25:22;;;;;;;42.22;24.10;;;;;;;0.32;100.00;101163.59;2610199;36;20038;-71
2021/12/11 07:28:01;;;;;;;47.25;23.63;;;;;;;0.28;100.00;101165.50;2608984;36;20084;-72
2021/12/11 07:30:34;;;;;;;43.28;22.48;;;;;;;0.27;100.00;101168.22;2607805;36;20041;-71
2021/12/11 07:33:08;;;;;;;45.50;21.95;;;;;;;0.41;100.00;101178.22;2606344;36;20752;-72
2021/12/11 07:35:37;;;;;;;39.70;21.80;;;;;;;0.40;100.00;101187.09;2609287;31;20046;-71
2021/12/11 07:38:06;;;;;;;41.55;22.58;;;;;;;0.24;100.00;101186.88;2609443;36;20125;-72
2021/12/11 07:40:41;;;;;;;46.65;23.42;;;;;;;0.25;100.00;101184.16;2610007;36;20034;-72
2021/12/11 07:43:12;;;;;;;38.72;21.83;;;;;;;0.10;100.00;101190.06;2608647;36;20130;-72
2021/12/11 07:45:46;;;;;;;43.30;23.67;;;;;;;-0.15;100.00;101185.72;2608340;36;20062;-72
2021/12/11 07:48:15;;;;;;;43.55;23.08;;;;;;;-0.03;100.00;101190.56;2628177;36;20061;-72
2021/12/11 07:50:44;;;;;;;43.60;22.33;;;;;;;-0.19;100.00;101186.78;2610557;36;20038;-73
2021/12/11 07:53:13;;;;;;;44.80;23.90;;;;;;;-0.28;100.00;101190.63;2610373;36;20050;-73
2021/12/11 07:55:59;;;;;;;49.08;24.00;;;;;;;-0.20;100.00;101199.13;2611890;36;20034;-73
2021/12/11 07:58:29;;;;;;;38.28;22.67;;;;;;;-0.22;100.00;101205.38;2646224;36;20042;-73
2021/12/11 08:01:18;;;;;;;44.80;23.35;;;;;;;-0.24;100.00;101213.38;2612876;36;20459;-73
2021/12/11 08:03:57;;;;;;;39.05;22.23;;;;;;;-0.37;100.00;101230.63;2612716;36;20039;-73
2021/12/11 08:06:32;;;;;;;38.65;21.80;;;;;;;-0.55;100.00;101229.53;2612854;36;20432;-73
2021/12/11 08:09:20;;;;;;;43.30;22.15;;;;;;;-0.51;100.00;101241.72;2612198;36;20046;-74
2021/12/11 08:11:56;;;;;;;36.97;20.95;;;;;;;-0.63;100.00;101244.81;2629692;36;20034;-74
2021/12/11 08:14:53;;;;;;;45.22;23.80;;;;;;;-0.42;100.00;101249.31;2645575;36;20019;-74
2021/12/11 08:17:27;;;;;;;35.83;21.23;;;;;;;-0.45;100.00;101248.59;2629976;36;20034;-73
2021/12/11 08:20:09;;;;;;;37.78;22.13;;;;;;;-0.43;100.00;101258.16;2611720;36;20035;-76
2021/12/11 08:22:41;;;;;;;39.35;21.55;;;;;;;-0.44;100.00;101280.25;2630177;36;20121;-73
2021/12/11 08:25:25;;;;;;;44.30;22.67;;;;;;;-0.51;100.00;101275.25;2612057;36;20068;-74
2021/12/11 08:28:16;;;;;;;47.08;23.48;;;;;;;-0.75;100.00;101276.06;2629346;36;20468;-73
2021/12/11 08:30:57;;;;;;;41.65;21.98;;;;;;;-0.66;100.00;101279.28;2630835;36;20458;-73
2021/12/11 08:33:36;;;;;;;40.70;22.42;;;;;;;-0.66;100.00;101284.56;2612012;36;20041;-73
2021/12/11 08:36:37;;;;;;;;;;;;;;;-0.59;100.00;101291.38;2612409;36;20030;-73
2021/12/11 08:41:50;;;;;;;40.67;22.13;;;;;;;-0.48;100.00;101305.06;2613985;46;20039;-73
2021/12/11 08:47:24;;;;;;;43.72;24.10;;;;;;;-0.54;100.00;101305.31;2628844;36;20936;-74
2021/12/11 08:50:02;;;;;;;42.15;22.63;;;;;;;-0.53;100.00;101309.66;2612023;36;20209;-74
2021/12/11 08:52:43;;;;;;;42.05;23.10;;;;;;;-0.56;100.00;101315.06;2645990;36;20038;-74
2021/12/11 08:55:24;;;;;;;40.95;22.00;;;;;;;-0.50;100.00;101325.44;2629044;36;20161;-73
2021/12/11 08:58:03;;;;;;;39.95;22.15;;;;;;;-0.36;100.00;101336.38;2612636;36;20042;-73
2021/12/11 09:00:38;;;;;;;52.35;24.77;;;;;;;-0.44;100.00;101343.72;2630061;36;20416;-73
2021/12/11 09:09:17;;;;;;;42.95;24.08;;;;;;;-0.21;100.00;101352.63;2611806;36;20038;-73
2021/12/11 09:12:20;;;;;;;50.00;25.90;;;;;;;-0.23;100.00;101365.91;2612246;36;20030;-74
2021/12/11 09:15:00;;;;;;;52.95;25.33;;;;;;;-0.20;100.00;101357.00;2630358;31;20543;-72
2021/12/11 09:17:44;;;;;;;;;;;;;;;-0.20;100.00;101379.00;2626577;36;20040;-73
2021/12/11 09:20:51;;;;;;;48.22;26.13;;;;;;;-0.05;100.00;101374.97;2627722;31;20176;-73
2021/12/11 09:23:31;;;;;;;44.00;23.85;;;;;;;0.05;100.00;101393.16;2611923;36;20046;-73
2021/12/11 09:26:13;;;;;;;45.65;24.20;;;;;;;0.01;100.00;101391.56;2628890;36;20030;-73
2021/12/11 09:29:12;;;;;;;47.00;23.83;;;;;;;-0.05;100.00;101398.78;2629475;36;20088;-74
2021/12/11 09:32:03;;;;;;;54.55;26.05;;;;;;;0.00;100.00;101401.28;2611815;54;20035;-73
2021/12/11 09:34:44;;;;;;;47.35;25.05;;;;;;;0.13;100.00;101406.97;2646810;36;20555;-74
2021/12/11 09:37:32;;;;;;;41.85;22.90;;;;;;;0.09;100.00;101415.94;2630015;36;20031;-74
2021/12/11 09:40:31;;;;;;;51.60;25.27;;;;;;;0.13;100.00;101406.97;2629358;36;20116;-74
2021/12/11 09:43:04;;;;;;;42.60;24.83;;;;;;;0.25;100.00;101411.84;2629658;36;20034;-72
2021/12/11 09:46:14;;;;;;;;;;;;;;;;;;;;;
2021/12/11 09:48:56;;;;;;;47.72;27.85;;;;;;;0.37;100.00;101420.22;2613345;31;20318;-72
2021/12/11 09:51:36;;;;;;;47.90;25.73;;;;;;;0.42;100.00;101431.53;2629771;36;20038;-73
2021/12/11 09:54:28;;;;;;;63.00;29.17;;;;;;;0.64;100.00;101428.94;2635481;36;20034;-73
2021/12/11 09:57:15;;;;;;;61.75;30.65;;;;;;;0.82;100.00;101427.38;2630180;36;20099;-71
2021/12/11 10:00:15;;;;;;;72.28;33.78;;;;;;;0.78;100.00;101436.34;2629502;36;20035;-73
2021/12/11 10:08:37;;;;;;;72.68;35.75;;;;;;;1.29;100.00;101452.94;2628903;36;20475;-74
2021/12/11 10:11:25;;;;;;;76.25;37.47;;;;;;;1.23;100.00;101449.59;2611710;36;20034;-73
2021/12/11 10:14:37;;;;;;;72.07;35.67;;;;;;;1.22;100.00;101458.47;2629784;36;20517;-73
2021/12/11 10:17:23;;;;;;;80.72;38.22;;;;;;;1.26;100.00;101451.25;2632031;36;20065;-73
2021/12/11 10:20:07;;;;;;;83.57;40.10;;;;;;;1.28;100.00;101457.38;2628717;36;20030;-73
2021/12/11 10:22:46;;;;;;;82.28;40.17;;;;;;;1.44;100.00;101457.59;2628882;36;20150;-73
2021/12/11 10:25:30;;;;;;;92.72;43.53;;;;;;;1.57;100.00;101465.94;2612104;36;20037;-73
2021/12/11 10:28:06;;;;;;;86.07;41.83;;;;;;;1.73;100.00;101474.13;2629192;36;20524;-73
2021/12/11 10:30:56;;;;;;;;;;;;;;;;;;;;;
2021/12/11 10:33:35;;;;;;;103.10;46.05;;;;;;;1.81;100.00;101472.00;2629251;36;20583;-73
2021/12/11 10:36:17;;;;;;;114.20;49.88;;;;;;;1.89;100.00;101469.03;2615750;36;20058;-72
2021/12/11 10:38:53;;;;;;;109.40;49.72;;;;;;;1.88;100.00;101473.44;2612556;31;20039;-70
2021/12/11 10:41:28;;;;;;;112.43;49.65;;;;;;;1.87;100.00;101468.22;2611935;36;20042;-70
2021/12/11 10:44:06;;;;;;;104.80;50.65;;;;;;;1.92;100.00;101468.91;2611724;36;20041;-70
2021/12/11 10:46:46;;;;;;;105.38;49.33;;;;;;;2.06;100.00;101473.59;2629404;36;20042;-72
2021/12/11 10:49:32;;;;;;;117.65;50.63;;;;;;;2.02;100.00;101477.34;2629460;36;20038;-72
2021/12/11 10:52:31;;;;;;;115.63;51.08;;;;;;;2.12;100.00;101469.81;2611194;31;20041;-72
2021/12/11 10:55:11;;;;;;;112.95;49.47;;;;;;;2.07;100.00;101483.31;2629541;36;20042;-72
2021/12/11 10:57:46;;;;;;;116.57;52.00;;;;;;;2.14;100.00;101490.06;2611168;31;20583;-72
2021/12/11 11:00:24;;;;;;;112.20;50.75;;;;;;;2.24;100.00;101495.88;2612036;31;20140;-72
2021/12/11 11:05:26;;;;;;;122.80;54.30;;;;;;;2.29;100.00;101493.84;2611245;36;20042;-72
2021/12/11 11:08:00;;;;;;;121.72;55.40;;;;;;;2.35;100.00;101498.91;2628549;36;20038;-73
2021/12/11 11:10:41;;;;;;;115.93;53.60;;;;;;;2.39;100.00;101504.94;2612789;36;20034;-72
2021/12/11 11:13:23;;;;;;;132.75;54.75;;;;;;;2.37;100.00;101507.69;2611765;36;20045;-71
2021/12/11 11:33:41;;;;;;;148.23;48.20;;;;;;;2.51;100.00;101535.44;2610809;54;20061;-72
2021/12/11 11:39:21;;;;;;;205.55;49.22;;;;;;;2.55;100.00;101547.66;2628962;36;20035;-71
2021/12/11 11:42:27;;;;;;;;;;;;;;;;;;;;;
2021/12/11 11:45:12;;;;;;;165.20;45.47;;;;;;;2.73;100.00;101564.59;2628345;36;20972;-72
2021/12/11 12:06:24;;;;;;;;;;;;;;;;;;;;;
2021/12/11 12:12:53;;;;;;;185.38;48.53;;;;;;;3.08;100.00;101589.59;2628231;36;20050;-71
2021/12/11 12:15:51;;;;;;;196.23;45.90;;;;;;;3.02;100.00;101596.97;2629194;36;20043;-72
2021/12/11 12:19:04;;;;;;;147.00;45.05;;;;;;;3.05;100.00;101595.03;2644569;36;20153;-71
2021/12/11 12:25:02;;;;;;;176.13;47.70;;;;;;;3.29;100.00;101600.16;2627140;36;20041;-71
2021/12/11 12:28:13;;;;;;;160.55;50.17;;;;;;;3.31;100.00;101600.94;2611654;36;20395;-72
2021/12/11 12:33:59;;;;;;;168.23;44.90;;;;;;;3.34;100.00;101590.16;2629263;36;20097;-74
2021/12/11 12:40:47;;;;;;;;;;;;;;;3.37;100.00;101587.34;2646562;36;20042;-71
2021/12/11 13:42:04;;;;;;;161.77;48.22;;;;;;;3.78;100.00;101627.13;2626111;36;20034;-71
2021/12/11 13:45:05;;;;;;;147.63;46.22;;;;;;;3.70;100.00;101629.31;2628818;36;20181;-72
2021/12/11 13:50:16;;;;;;;184.38;52.13;;;;;;;3.68;100.00;101634.72;2612011;39;20482;-73
2021/12/11 14:17:09;;;;;;;148.18;45.78;;;;;;;3.89;100.00;101671.03;2607916;36;20098;-81
2021/12/11 14:22:40;;;;;;;183.80;48.30;;;;;;;3.92;100.00;101676.22;2627027;36;20412;-74
2021/12/11 14:25:24;;;;;;;179.43;48.60;;;;;;;3.89;100.00;101671.03;2607723;36;20092;-74
2021/12/11 15:10:19;;;;;;;143.35;43.35;;;;;;;3.51;100.00;101730.44;2625604;36;20447;-74
2021/12/11 15:15:41;;;;;;;179.32;49.72;;;;;;;3.49;100.00;101732.31;2611958;36;20039;-75
2021/12/11 15:18:15;;;;;;;168.80;49.40;;;;;;;3.50;100.00;101734.91;2610986;36;20030;-75
2021/12/11 15:20:54;;;;;;;151.98;47.30;;;;;;;3.56;100.00;101733.75;2611392;36;20640;-74
2021/12/11 15:23:57;;;;;;;194.43;52.90;;;;;;;3.47;100.00;101735.03;2611286;36;20041;-74
2021/12/11 15:26:37;;;;;;;172.70;53.88;;;;;;;3.41;100.00;101740.63;2659600;36;20030;-75
2021/12/11 15:29:15;;;;;;;190.77;53.05;;;;;;;3.36;100.00;101736.44;2611405;36;20072;-75
2021/12/11 15:31:55;;;;;;;185.52;51.95;;;;;;;3.30;100.00;101743.78;2630799;36;20038;-73
2021/12/11 15:39:53;;;;;;;176.68;50.50;;;;;;;3.22;100.00;101745.03;2611472;36;20057;-74
2021/12/11 15:45:22;;;;;;;144.65;47.42;;;;;;;3.10;100.00;101741.13;2611778;36;20386;-76
2021/12/11 15:50:51;;;;;;;145.13;49.60;;;;;;;3.05;100.00;101749.31;2612407;36;20641;-74
2021/12/11 15:59:22;;;;;;;128.05;46.38;;;;;;;2.79;100.00;101756.56;2611323;36;20130;-73
2021/12/11 16:04:48;;;;;;;145.95;47.50;;;;;;;2.85;100.00;101765.22;2629934;36;20770;-74
2021/12/11 16:10:30;;;;;;;140.82;46.78;;;;;;;2.60;100.00;101768.88;2607791;36;20570;-74
2021/12/11 16:15:57;;;;;;;128.88;47.38;;;;;;;2.43;100.00;101780.22;2606359;36;20030;-74
2021/12/11 16:24:41;;;;;;;;;;;;;;;;;;;;;
2021/12/11 16:52:09;;;;;;;147.98;52.20;;;;;;;2.13;100.00;101803.50;2655011;36;20084;-74
2021/12/11 16:54:44;;;;;;;138.65;51.20;;;;;;;2.28;100.00;101805.56;2625492;36;20097;-75
2021/12/11 16:57:14;;;;;;;145.00;51.92;;;;;;;2.27;100.00;101814.47;2608054;36;20046;-75
2021/12/11 17:02:47;;;;;;;139.57;49.15;;;;;;;2.33;100.00;101814.25;2607501;31;20049;-73
2021/12/11 17:11:22;;;;;;;135.98;51.60;;;;;;;2.72;100.00;101826.00;2628995;36;20052;-73
2021/12/11 17:14:15;;;;;;;130.63;53.70;;;;;;;2.82;100.00;101827.38;2608172;36;20061;-74
2021/12/11 17:16:50;;;;;;;139.02;55.50;;;;;;;2.75;100.00;101828.53;2606589;36;20072;-74
2021/12/11 17:22:13;;;;;;;145.70;53.95;;;;;;;2.83;100.00;101838.84;2611099;31;20034;-73
2021/12/11 17:33:54;;;;;;;130.65;51.92;;;;;;;2.96;100.00;101856.06;2609239;36;20038;-73
2021/12/11 17:36:44;;;;;;;133.00;49.63;;;;;;;2.97;100.00;101855.13;2610041;31;20157;-73
2021/12/11 17:39:57;;;;;;;135.30;51.70;;;;;;;3.04;100.00;101863.72;2611206;36;20156;-74
2021/12/11 17:54:33;;;;;;;119.00;50.08;;;;;;;3.32;100.00;101880.25;2608334;36;20069;-75
2021/12/11 17:57:05;;;;;;;111.28;47.50;;;;;;;3.41;100.00;101872.84;2609130;36;20039;-74
2021/12/11 18:03:02;;;;;;;116.10;49.45;;;;;;;3.53;100.00;101887.41;2608136;36;20554;-74
2021/12/11 18:05:56;;;;;;;114.43;47.47;;;;;;;3.55;100.00;101880.22;2656697;36;20502;-73
2021/12/11 18:28:08;;;;;;;77.50;33.97;;;;;;;3.65;100.00;101909.06;2608077;31;20038;-74
2021/12/11 18:31:10;;;;;;;79.07;35.92;;;;;;;3.49;100.00;101906.19;2609570;36;20035;-74
2021/12/11 19:09:07;;;;;;;62.40;31.70;;;;;;;3.82;100.00;101884.34;2646001;36;20376;-74
2021/12/11 19:12:55;;;;;;;;;;;;;;;;;;;;;
2021/12/11 19:26:56;;;;;;;56.85;27.98;;;;;;;3.83;100.00;101896.75;2626901;36;20069;-74
2021/12/11 19:29:50;;;;;;;54.95;25.90;;;;;;;3.86;100.00;101896.63;2608189;36;20039;-74
2021/12/11 19:32:26;;;;;;;59.92;28.00;;;;;;;3.81;100.00;101893.31;2607949;31;20042;-74
2021/12/11 19:34:55;;;;;;;55.70;29.77;;;;;;;3.77;100.00;101901.47;2611050;36;20057;-73
2021/12/11 19:44:19;;;;;;;62.83;30.65;;;;;;;3.75;100.00;101906.84;2607349;36;20149;-73
2021/12/11 19:49:42;;;;;;;61.17;30.88;;;;;;;3.68;100.00;101905.38;2609419;31;20065;-74
2021/12/11 19:55:15;;;;;;;66.40;33.30;;;;;;;3.62;100.00;101903.00;2610460;36;20031;-74
2021/12/11 19:57:46;;;;;;;65.28;33.08;;;;;;;3.68;100.00;101914.25;2610349;31;20156;-73
2021/12/11 20:00:32;;;;;;;64.95;28.42;;;;;;;3.78;100.00;101916.53;2610604;36;20034;-74
2021/12/11 20:06:05;;;;;;;63.60;30.48;;;;;;;3.88;100.00;101925.84;2609251;36;20593;-74
2021/12/11 20:08:48;;;;;;;70.85;31.90;;;;;;;3.86;100.00;101931.22;2627013;36;20030;-75
2021/12/11 20:14:09;;;;;;;70.72;33.78;;;;;;;3.86;100.00;101920.59;2611043;36;20495;-74
2021/12/11 20:16:54;;;;;;;75.07;38.15;;;;;;;3.89;100.00;101919.59;2610020;36;20038;-74
2021/12/11 20:19:46;;;;;;;64.22;32.92;;;;;;;3.90;100.00;101923.09;2604246;36;20038;-75
2021/12/11 20:25:31;;;;;;;73.80;34.60;;;;;;;3.85;100.00;101929.50;2609605;36;20041;-75
2021/12/11 20:51:02;;;;;;;83.78;42.33;;;;;;;3.84;100.00;101918.91;2627403;36;20070;-73
2021/12/11 21:00:29;;;;;;;85.03;39.85;;;;;;;4.07;100.00;101925.06;2634576;36;20038;-73
2021/12/11 21:06:52;;;;;;;82.65;39.97;;;;;;;4.04;100.00;101926.91;2610300;36;20042;-75
2021/12/11 21:24:32;;;;;;;77.25;38.92;;;;;;;4.07;100.00;101925.91;2610913;36;20149;-73
2021/12/11 21:27:04;;;;;;;91.47;43.05;;;;;;;4.04;100.00;101932.22;2611854;36;20030;-73
2021/12/11 22:59:38;;;;;;;58.83;31.73;;;;;;;4.51;100.00;101940.84;2655322;36;20494;-76
2021/12/11 23:02:25;;;;;;;61.80;30.55;;;;;;;4.57;100.00;101940.56;2610169;31;20030;-74
2021/12/11 23:05:12;;;;;;;62.92;29.17;;;;;;;4.60;100.00;101940.41;2608665;54;20065;-75
2021/12/11 23:58:45;;;;;;;51.13;24.83;;;;;;;4.54;100.00;101884.69;2610989;36;20034;-74
